Time;durP1;ratioP1;P1;durP2;ratioP2;P2;SDS_P1;SDS_P2;PMS_P1;PMS_P2;Temp;Humidity;BMP_temperature;BMP_pressure;BME280_temperature;BME280_humidity;BME280_pressure;Samples;Min_cycle;Max_cycle;Signal;HPM_P1;HPM_P2
2024/01/01 00:00:22;;;;;;;57.07;33.33;;;9.40;93.60;;;;;;4984347;28;20086;-89
2024/01/01 00:02:48;;;;;;;78.50;44.53;;;9.40;93.60;;;;;;4985108;28;20022;-87
2024/01/01 00:05:14;;;;;;;55.27;31.77;;;9.40;93.60;;;;;;4984692;28;20041;-89
2024/01/01 00:07:41;;;;;;;29.60;14.23;;;9.40;93.60;;;;;;4986014;28;20034;-89
2024/01/01 00:10:07;;;;;;;34.03;19.77;;;9.40;93.40;;;;;;4987458;28;20101;-91
2024/01/01 00:12:33;;;;;;;31.23;16.07;;;9.40;93.30;;;;;;4989459;28;20022;-92
2024/01/01 00:14:59;;;;;;;22.90;11.87;;;9.40;92.90;;;;;;4971683;28;20027;-88
2024/01/01 00:17:25;;;;;;;34.53;17.40;;;9.40;92.90;;;;;;4986644;28;20058;-87
2024/01/01 00:19:51;;;;;;;30.47;14.03;;;9.40;93.00;;;;;;4986005;28;20019;-87
2024/01/01 00:22:17;;;;;;;26.97;14.67;;;9.30;93.40;;;;;;4985654;28;20054;-85
2024/01/01 00:24:43;;;;;;;25.37;11.70;;;9.30;93.90;;;;;;5005181;28;20031;-89
2024/01/01 00:27:09;;;;;;;23.60;11.13;;;9.30;94.10;;;;;;4984878;28;20434;-88
2024/01/01 00:29:35;;;;;;;26.20;12.83;;;9.20;94.40;;;;;;4985579;28;20022;-89
2024/01/01 00:32:02;;;;;;;22.87;10.23;;;9.20;94.50;;;;;;4985497;28;20089;-88
2024/01/01 00:34:27;;;;;;;20.07;8.70;;;9.10;93.90;;;;;;4984873;28;20069;-88
2024/01/01 00:36:53;;;;;;;18.73;8.10;;;9.10;93.90;;;;;;4985497;28;20018;-88
2024/01/01 00:39:19;;;;;;;22.87;7.40;;;9.10;94.10;;;;;;4982381;28;20074;-88
2024/01/01 00:41:46;;;;;;;17.17;6.00;;;9.00;93.80;;;;;;4982330;28;20070;-89
2024/01/01 00:44:12;;;;;;;12.43;4.10;;;9.00;93.90;;;;;;4997729;28;20027;-87
2024/01/01 00:46:37;;;;;;;12.40;4.07;;;9.00;94.00;;;;;;4980629;28;20015;-88
2024/01/01 00:49:03;;;;;;;10.20;3.83;;;9.00;94.00;;;;;;4981560;28;20023;-87
2024/01/01 00:51:29;;;;;;;12.00;4.17;;;8.90;94.00;;;;;;4997162;28;20037;-87
2024/01/01 00:53:55;;;;;;;13.43;4.40;;;8.90;94.00;;;;;;4981689;28;20019;-88
2024/01/01 00:56:21;;;;;;;10.93;3.33;;;8.90;94.00;;;;;;4984020;28;20030;-92
2024/01/01 00:58:47;;;;;;;11.27;4.43;;;8.90;93.80;;;;;;4982375;28;20059;-86
2024/01/01 01:01:12;;;;;;;14.27;3.10;;;8.90;93.80;;;;;;4982635;28;20015;-89
2024/01/01 01:03:38;;;;;;;9.37;2.33;;;8.90;93.50;;;;;;4982652;28;20031;-89
2024/01/01 01:06:05;;;;;;;8.23;2.00;;;8.80;93.30;;;;;;4984312;28;20021;-88
2024/01/01 01:08:31;;;;;;;6.03;1.60;;;8.80;93.20;;;;;;4985590;28;20034;-89
2024/01/01 01:10:57;;;;;;;7.03;1.93;;;8.80;92.90;;;;;;4984127;28;20023;-88
2024/01/01 01:13:23;;;;;;;7.27;2.17;;;8.80;93.20;;;;;;4984443;28;20046;-86
2024/01/01 01:15:49;;;;;;;4.53;1.10;;;8.80;93.20;;;;;;4983931;28;20475;-85
2024/01/01 01:18:15;;;;;;;6.53;1.47;;;8.80;93.20;;;;;;4983264;28;20023;-86
2024/01/01 01:20:41;;;;;;;8.53;1.87;;;8.80;93.30;;;;;;4983858;28;20062;-86
2024/01/01 01:23:08;;;;;;;7.03;1.70;;;8.70;93.40;;;;;;4985807;28;20023;-90
2024/01/01 01:25:34;;;;;;;10.73;1.80;;;8.70;93.50;;;;;;4984979;28;20057;-89
2024/01/01 01:27:59;;;;;;;7.97;1.87;;;8.70;93.40;;;;;;4984974;28;20396;-90
2024/01/01 01:30:28;;;;;;;7.90;1.60;;;8.70;93.60;;;;;;4986841;28;20545;-91
2024/01/01 01:32:54;;;;;;;6.63;1.87;;;8.60;93.70;;;;;;4984224;28;20054;-91
2024/01/01 01:35:23;;;;;;;7.23;1.70;;;8.60;93.90;;;;;;4983452;28;20096;-88
2024/01/01 01:37:49;;;;;;;5.70;1.50;;;8.50;93.80;;;;;;4984701;28;20026;-91
2024/01/01 01:40:15;;;;;;;5.83;1.20;;;8.50;93.90;;;;;;4984668;28;20050;-91
2024/01/01 01:42:47;;;;;;;7.20;2.40;;;8.50;93.90;;;;;;4985377;28;20022;-92
2024/01/01 01:45:13;;;;;;;8.03;1.67;;;8.40;93.90;;;;;;4984806;28;20050;-88
2024/01/01 01:47:40;;;;;;;6.33;1.00;;;8.30;93.90;;;;;;4984051;28;20030;-89
2024/01/01 01:50:07;;;;;;;9.47;1.67;;;8.40;94.20;;;;;;4983300;28;20027;-88
2024/01/01 01:52:37;;;;;;;7.17;1.70;;;8.30;94.30;;;;;;4982912;28;20015;-86
2024/01/01 01:55:04;;;;;;;7.03;1.60;;;8.30;94.40;;;;;;4982709;28;20031;-85
2024/01/01 01:57:30;;;;;;;6.60;1.33;;;8.30;94.40;;;;;;4982836;28;20027;-84
2024/01/01 01:59:57;;;;;;;6.07;1.83;;;8.30;94.50;;;;;;4983324;28;20030;-84
2024/01/01 02:02:26;;;;;;;11.50;2.40;;;8.20;94.70;;;;;;4982765;28;20142;-85
2024/01/01 02:04:52;;;;;;;10.73;2.83;;;8.20;94.80;;;;;;4983413;28;20117;-86
2024/01/01 02:07:20;;;;;;;8.57;1.83;;;8.20;94.80;;;;;;4982462;28;20034;-85
2024/01/01 02:09:46;;;;;;;7.83;2.23;;;8.20;95.00;;;;;;4983380;28;20118;-86
2024/01/01 02:12:12;;;;;;;8.43;2.97;;;8.10;95.10;;;;;;4983681;28;20030;-87
2024/01/01 02:14:38;;;;;;;5.37;1.40;;;8.10;95.20;;;;;;4981719;28;20411;-86
2024/01/01 02:17:04;;;;;;;5.60;1.60;;;8.10;95.30;;;;;;4983516;28;20026;-86
2024/01/01 02:19:30;;;;;;;8.67;1.87;;;8.10;95.50;;;;;;4982589;28;20090;-86
2024/01/01 02:21:56;;;;;;;8.40;1.47;;;8.10;96.00;;;;;;4983024;28;20027;-86
2024/01/01 02:24:22;;;;;;;12.50;1.90;;;8.00;95.80;;;;;;4982240;28;20033;-85
2024/01/01 02:26:48;;;;;;;9.00;1.50;;;8.00;96.00;;;;;;4966304;28;20046;-87
2024/01/01 02:29:15;;;;;;;9.03;2.20;;;8.00;96.10;;;;;;4982825;28;20033;-87
2024/01/01 02:31:41;;;;;;;7.30;1.90;;;8.00;96.20;;;;;;4982485;28;20110;-87
2024/01/01 02:34:07;;;;;;;7.73;1.70;;;8.00;96.20;;;;;;4982934;28;20407;-88
2024/01/01 02:36:38;;;;;;;6.23;1.67;;;8.00;96.30;;;;;;4982562;28;20031;-87
2024/01/01 02:39:05;;;;;;;11.93;1.80;;;8.00;96.40;;;;;;4982616;28;20062;-88
2024/01/01 02:41:35;;;;;;;5.57;1.17;;;8.10;96.50;;;;;;4982349;28;20038;-88
2024/01/01 02:44:01;;;;;;;7.47;1.43;;;8.10;96.80;;;;;;4984171;28;20019;-88
2024/01/01 02:46:27;;;;;;;7.70;1.90;;;8.10;97.30;;;;;;4982850;28;20027;-89
2024/01/01 02:48:53;;;;;;;11.30;2.37;;;8.00;97.70;;;;;;4982437;28;20026;-90
2024/01/01 02:51:19;;;;;;;12.67;1.67;;;8.00;98.70;;;;;;4982904;28;20054;-89
2024/01/01 02:53:44;;;;;;;12.27;1.83;;;8.00;99.60;;;;;;4983113;28;20027;-89
2024/01/01 02:56:18;;;;;;;10.70;1.67;;;7.90;99.90;;;;;;4984675;28;20027;-90
2024/01/01 02:58:44;;;;;;;11.52;2.05;;;7.80;99.90;;;;;;4983510;28;20050;-90
2024/01/01 03:01:10;;;;;;;9.47;1.80;;;7.80;99.90;;;;;;4983941;28;20022;-88
2024/01/01 03:03:36;;;;;;;12.73;2.20;;;7.70;99.90;;;;;;4983829;28;20029;-89
2024/01/01 03:06:02;;;;;;;7.03;1.50;;;7.70;99.90;;;;;;4983306;28;20022;-89
2024/01/01 03:08:29;;;;;;;7.27;1.50;;;7.60;99.90;;;;;;4983647;28;20038;-90
2024/01/01 03:10:55;;;;;;;11.73;1.77;;;7.60;99.90;;;;;;4982486;28;20432;-90
2024/01/01 03:13:21;;;;;;;11.10;1.60;;;7.60;99.90;;;;;;4983686;28;20061;-89
2024/01/01 03:15:47;;;;;;;9.00;2.27;;;7.60;99.90;;;;;;4982212;28;20030;-90
2024/01/01 03:18:17;;;;;;;11.30;1.83;;;7.60;99.90;;;;;;4984331;28;20023;-90
2024/01/01 03:20:43;;;;;;;16.70;2.60;;;7.50;99.90;;;;;;4983054;28;20090;-88
2024/01/01 03:23:09;;;;;;;13.83;1.90;;;7.50;99.90;;;;;;4981364;28;20027;-86
2024/01/01 03:25:34;;;;;;;12.30;1.33;;;7.50;99.90;;;;;;4981109;28;20027;-88
2024/01/01 03:28:00;;;;;;;11.23;1.30;;;7.50;99.90;;;;;;4981000;28;20031;-87
2024/01/01 03:30:26;;;;;;;15.07;1.90;;;7.50;99.90;;;;;;4981734;28;20046;-88
2024/01/01 03:32:52;;;;;;;10.47;1.20;;;7.50;99.90;;;;;;4980632;28;20090;-87
2024/01/01 03:35:19;;;;;;;14.93;1.87;;;7.40;99.90;;;;;;4981243;28;20027;-87
2024/01/01 03:37:45;;;;;;;10.20;1.63;;;7.50;99.90;;;;;;4981078;28;20023;-88
2024/01/01 03:40:12;;;;;;;9.27;1.47;;;7.60;99.90;;;;;;4981524;28;20557;-89
2024/01/01 03:42:37;;;;;;;10.20;1.33;;;7.60;99.90;;;;;;4981736;28;20023;-88
2024/01/01 03:45:04;;;;;;;10.77;1.97;;;7.70;99.90;;;;;;4980716;28;20074;-88
2024/01/01 03:47:31;;;;;;;12.00;1.40;;;7.70;99.90;;;;;;4981386;28;20090;-87
2024/01/01 03:49:57;;;;;;;9.47;1.90;;;7.70;99.90;;;;;;4980994;28;20030;-88
2024/01/01 03:52:24;;;;;;;7.83;1.30;;;7.70;99.90;;;;;;4981511;28;20031;-88
2024/01/01 03:54:50;;;;;;;16.20;1.77;;;7.70;99.90;;;;;;4981054;28;20019;-88
2024/01/01 03:57:16;;;;;;;12.50;1.70;;;7.70;99.90;;;;;;4981321;28;20019;-89
2024/01/01 03:59:42;;;;;;;9.33;1.80;;;7.70;99.90;;;;;;4980862;28;20019;-87
2024/01/01 04:02:10;;;;;;;12.87;2.13;;;7.70;99.90;;;;;;4980384;28;20058;-88
2024/01/01 04:04:36;;;;;;;17.30;2.03;;;7.70;99.90;;;;;;4981374;28;20023;-88
2024/01/01 04:07:02;;;;;;;13.03;1.50;;;7.70;99.90;;;;;;4980606;28;20038;-87
2024/01/01 04:09:28;;;;;;;15.00;1.67;;;7.70;99.90;;;;;;4965544;28;20111;-88
2024/01/01 04:11:55;;;;;;;13.40;1.37;;;7.70;99.90;;;;;;4980257;28;20026;-88
2024/01/01 04:14:21;;;;;;;11.43;1.53;;;7.70;99.90;;;;;;4981390;28;20034;-88
2024/01/01 04:16:47;;;;;;;11.03;1.63;;;7.70;99.90;;;;;;4980533;28;20053;-88
2024/01/01 04:19:12;;;;;;;11.93;1.53;;;7.70;99.90;;;;;;4981010;28;20057;-88
2024/01/01 04:21:39;;;;;;;16.43;2.87;;;7.80;99.90;;;;;;4981382;28;20054;-88
2024/01/01 04:24:07;;;;;;;16.27;2.30;;;7.80;99.90;;;;;;4980725;28;20026;-87
2024/01/01 04:26:33;;;;;;;11.97;1.40;;;7.90;99.90;;;;;;4981073;28;20309;-86
2024/01/01 04:28:59;;;;;;;13.80;2.30;;;7.90;99.90;;;;;;4980246;28;20155;-87
2024/01/01 04:31:25;;;;;;;14.80;1.90;;;7.90;99.90;;;;;;4981248;28;20023;-86
2024/01/01 04:33:50;;;;;;;11.73;1.43;;;7.90;99.90;;;;;;4980574;28;20027;-88
2024/01/01 04:36:16;;;;;;;14.70;1.80;;;8.00;99.90;;;;;;4980214;28;20019;-87
2024/01/01 04:38:42;;;;;;;11.53;2.03;;;8.00;99.90;;;;;;4985603;28;20035;-87
2024/01/01 04:41:09;;;;;;;14.00;1.57;;;8.00;99.90;;;;;;4987272;28;20018;-87
2024/01/01 04:43:40;;;;;;;16.17;1.53;;;8.10;99.90;;;;;;4988387;28;20029;-88
2024/01/01 04:46:06;;;;;;;10.03;1.60;;;8.00;99.90;;;;;;4983969;28;20030;-87
2024/01/01 04:48:33;;;;;;;11.87;1.57;;;8.10;99.90;;;;;;4988383;28;20034;-87
2024/01/01 04:50:59;;;;;;;10.33;1.57;;;8.00;99.90;;;;;;4986659;28;20037;-87
2024/01/01 04:53:25;;;;;;;9.00;2.03;;;8.00;99.90;;;;;;4987545;28;20035;-86
2024/01/01 04:55:50;;;;;;;10.43;1.13;;;8.00;99.90;;;;;;4987346;28;20410;-85
2024/01/01 04:58:16;;;;;;;15.97;1.57;;;8.00;99.90;;;;;;4987177;28;20026;-87
2024/01/01 05:00:42;;;;;;;6.70;1.07;;;8.10;99.90;;;;;;4987150;28;20023;-85
2024/01/01 05:03:08;;;;;;;18.67;2.13;;;8.10;99.90;;;;;;4986745;28;20049;-86
2024/01/01 05:05:33;;;;;;;10.67;1.43;;;8.00;99.90;;;;;;4987886;28;20028;-86
2024/01/01 05:07:59;;;;;;;14.90;2.60;;;8.00;99.90;;;;;;4986887;28;20092;-86
2024/01/01 05:10:25;;;;;;;11.53;1.80;;;8.00;99.90;;;;;;4987788;28;20022;-87
2024/01/01 05:12:52;;;;;;;13.70;1.83;;;8.00;99.90;;;;;;4986971;28;20011;-87
2024/01/01 05:15:18;;;;;;;13.87;1.30;;;8.00;99.90;;;;;;4986676;28;20648;-86
2024/01/01 05:17:44;;;;;;;10.93;1.63;;;7.90;99.90;;;;;;4987450;28;20022;-86
2024/01/01 05:20:13;;;;;;;16.73;1.63;;;7.90;99.90;;;;;;4986312;28;20018;-86
2024/01/01 05:22:40;;;;;;;10.43;1.10;;;7.80;99.90;;;;;;4987348;28;20045;-87
2024/01/01 05:25:07;;;;;;;11.70;1.30;;;7.90;99.90;;;;;;5004153;28;20023;-87
2024/01/01 05:27:32;;;;;;;11.73;1.50;;;7.80;99.90;;;;;;4987179;28;20033;-87
2024/01/01 05:29:59;;;;;;;12.40;2.20;;;7.80;99.90;;;;;;4987757;28;20054;-86
2024/01/01 05:32:24;;;;;;;12.43;1.80;;;7.80;99.90;;;;;;4987502;28;20022;-86
2024/01/01 05:34:50;;;;;;;11.37;1.20;;;7.80;99.90;;;;;;5002776;28;20390;-89
2024/01/01 05:37:16;;;;;;;13.53;1.67;;;7.80;99.90;;;;;;5006858;28;20026;-88
2024/01/01 05:39:42;;;;;;;10.67;1.17;;;7.70;99.90;;;;;;5019879;28;20041;-88
2024/01/01 05:42:07;;;;;;;11.30;1.30;;;7.70;99.90;;;;;;5005717;28;20061;-87
2024/01/01 05:44:33;;;;;;;12.17;2.00;;;7.70;99.90;;;;;;5006458;28;20030;-87
2024/01/01 05:46:59;;;;;;;15.33;1.93;;;7.70;99.90;;;;;;5006016;28;20041;-87
2024/01/01 05:49:24;;;;;;;9.97;1.40;;;7.70;99.90;;;;;;5006058;28;20081;-87
2024/01/01 05:51:50;;;;;;;18.37;1.70;;;7.70;99.90;;;;;;5006283;28;20022;-86
2024/01/01 05:54:16;;;;;;;14.80;1.50;;;7.70;99.90;;;;;;5005615;28;20026;-88
2024/01/01 05:56:44;;;;;;;11.10;1.43;;;7.70;99.90;;;;;;5006600;28;20030;-88
2024/01/01 05:59:10;;;;;;;11.93;1.30;;;7.70;99.90;;;;;;5005393;28;20041;-88
2024/01/01 06:01:35;;;;;;;10.27;1.67;;;7.70;99.90;;;;;;5007247;28;20022;-87
2024/01/01 06:04:02;;;;;;;7.73;1.00;;;7.80;99.90;;;;;;5006112;28;20018;-87
2024/01/01 06:06:27;;;;;;;16.13;2.03;;;7.80;99.90;;;;;;5007653;28;20024;-87
2024/01/01 06:08:53;;;;;;;8.07;1.67;;;7.80;99.90;;;;;;5007477;28;20113;-88
2024/01/01 06:11:19;;;;;;;14.83;1.10;;;7.80;99.90;;;;;;5006935;28;20018;-88
2024/01/01 06:13:46;;;;;;;6.20;0.90;;;7.70;99.90;;;;;;5006329;28;20034;-87
2024/01/01 06:16:13;;;;;;;13.00;2.40;;;7.80;99.90;;;;;;5004977;28;20029;-88
2024/01/01 06:18:39;;;;;;;15.53;1.93;;;7.70;99.90;;;;;;5006484;28;20041;-88
2024/01/01 06:21:05;;;;;;;9.23;1.33;;;7.70;99.90;;;;;;5005134;28;20034;-87
2024/01/01 06:23:30;;;;;;;11.03;1.87;;;7.60;99.90;;;;;;5005854;28;20022;-86
2024/01/01 06:25:57;;;;;;;9.83;1.77;;;7.70;99.90;;;;;;5005277;28;20033;-86
2024/01/01 06:28:22;;;;;;;12.97;1.60;;;7.60;99.90;;;;;;5004803;28;20040;-86
2024/01/01 06:30:48;;;;;;;7.70;1.67;;;7.60;99.90;;;;;;5005564;28;20030;-85
2024/01/01 06:33:14;;;;;;;11.77;1.67;;;7.60;99.90;;;;;;5004749;28;20022;-86
2024/01/01 06:35:40;;;;;;;15.33;1.90;;;7.60;99.90;;;;;;5005632;28;20041;-86
2024/01/01 06:38:06;;;;;;;11.67;1.60;;;7.50;99.90;;;;;;5004372;28;20026;-86
2024/01/01 06:40:32;;;;;;;9.97;1.90;;;7.50;99.90;;;;;;5005056;28;20046;-87
2024/01/01 06:42:58;;;;;;;11.20;1.80;;;7.50;99.90;;;;;;5004776;28;20025;-87
2024/01/01 06:45:24;;;;;;;6.97;2.03;;;7.50;99.90;;;;;;5004622;28;20113;-87
2024/01/01 06:47:51;;;;;;;13.77;1.83;;;7.50;99.90;;;;;;5005188;28;20502;-86
2024/01/01 06:50:16;;;;;;;13.27;2.43;;;7.60;99.90;;;;;;5004753;28;20080;-88
2024/01/01 06:52:42;;;;;;;10.83;1.57;;;7.60;99.90;;;;;;5005802;28;20022;-87
2024/01/01 06:55:08;;;;;;;10.47;1.47;;;7.50;99.90;;;;;;5004171;28;20029;-88
2024/01/01 06:57:34;;;;;;;8.27;1.30;;;7.50;99.90;;;;;;5022767;28;20021;-88
2024/01/01 07:00:00;;;;;;;12.80;1.73;;;7.50;99.90;;;;;;5022456;28;20072;-89
2024/01/01 07:02:26;;;;;;;9.67;1.63;;;7.50;99.90;;;;;;5004287;28;20021;-87
2024/01/01 07:04:52;;;;;;;14.13;1.80;;;7.50;99.90;;;;;;5004628;28;20022;-87
2024/01/01 07:07:18;;;;;;;14.90;1.57;;;7.50;99.90;;;;;;5021931;28;20048;-89
2024/01/01 07:09:44;;;;;;;15.77;1.90;;;7.50;99.90;;;;;;5004997;28;20026;-88
2024/01/01 07:12:25;;;;;;;9.97;1.50;;;7.50;99.90;;;;;;5003973;28;20034;-88
2024/01/01 07:14:51;;;;;;;14.27;1.97;;;7.50;99.90;;;;;;5005120;28;20026;-88
2024/01/01 07:17:17;;;;;;;15.73;2.07;;;7.50;99.90;;;;;;5004552;28;20033;-88
2024/01/01 07:19:43;;;;;;;10.00;1.87;;;7.50;99.90;;;;;;5004377;28;20026;-87
2024/01/01 07:22:09;;;;;;;14.53;2.27;;;7.50;99.90;;;;;;5004110;28;20435;-87
2024/01/01 07:24:35;;;;;;;13.47;1.73;;;7.50;99.90;;;;;;5003473;28;20053;-87
2024/01/01 07:27:01;;;;;;;13.30;2.43;;;7.50;99.90;;;;;;5004598;28;20030;-87
2024/01/01 07:29:29;;;;;;;12.13;2.47;;;7.50;99.90;;;;;;5003596;28;20026;-89
2024/01/01 07:31:55;;;;;;;12.10;2.07;;;7.50;99.90;;;;;;5005048;28;20029;-87
2024/01/01 07:34:21;;;;;;;12.10;1.70;;;7.50;99.90;;;;;;5003339;28;20099;-87
2024/01/01 07:36:48;;;;;;;12.40;1.90;;;7.50;99.90;;;;;;4988246;28;20026;-89
2024/01/01 07:39:19;;;;;;;11.17;2.43;;;7.50;99.90;;;;;;5003924;28;20049;-86
2024/01/01 07:41:45;;;;;;;13.80;2.63;;;7.50;99.90;;;;;;5003829;28;20113;-87
2024/01/01 07:44:11;;;;;;;10.13;1.87;;;7.60;99.90;;;;;;5004734;28;20018;-85
2024/01/01 07:46:37;;;;;;;12.23;2.33;;;7.60;99.90;;;;;;5003391;28;20022;-87
2024/01/01 07:49:05;;;;;;;10.20;1.93;;;7.60;99.90;;;;;;5004911;28;20053;-86
2024/01/01 07:51:31;;;;;;;14.40;1.90;;;7.60;99.90;;;;;;5003364;28;20044;-87
2024/01/01 07:53:57;;;;;;;10.30;2.03;;;7.60;99.90;;;;;;5003859;28;20469;-89
2024/01/01 07:56:23;;;;;;;15.53;2.57;;;7.60;99.90;;;;;;5003966;28;20029;-88
2024/01/01 07:58:51;;;;;;;12.10;2.10;;;7.60;99.90;;;;;;5003550;28;20381;-89
2024/01/01 08:01:17;;;;;;;10.97;1.80;;;7.60;99.90;;;;;;5004637;28;20026;-87
2024/01/01 08:03:43;;;;;;;9.47;1.97;;;7.60;99.90;;;;;;5002743;28;20033;-86
2024/01/01 08:06:08;;;;;;;12.57;1.83;;;7.50;99.90;;;;;;5004272;28;20061;-87
2024/01/01 08:08:34;;;;;;;13.70;2.40;;;7.50;99.90;;;;;;5002976;28;20038;-87
2024/01/01 08:11:00;;;;;;;11.70;2.23;;;7.60;99.90;;;;;;5004028;28;20101;-88
2024/01/01 08:13:26;;;;;;;9.27;1.60;;;7.60;99.90;;;;;;5005730;28;20018;-85
2024/01/01 08:15:52;;;;;;;11.50;1.67;;;7.60;99.90;;;;;;5007343;28;20603;-86
2024/01/01 08:18:18;;;;;;;16.30;3.53;;;7.60;99.90;;;;;;5008278;28;20024;-87
2024/01/01 08:20:43;;;;;;;10.27;2.17;;;7.60;99.90;;;;;;5007338;28;20037;-85
2024/01/01 08:23:10;;;;;;;13.90;2.57;;;7.60;99.90;;;;;;5007564;28;20030;-84
2024/01/01 08:25:36;;;;;;;12.60;2.60;;;7.60;99.90;;;;;;5007420;28;20045;-87
2024/01/01 08:28:02;;;;;;;9.47;2.60;;;7.60;99.90;;;;;;5008153;28;20034;-87
2024/01/01 08:30:28;;;;;;;13.47;3.03;;;7.70;99.90;;;;;;5008018;28;20093;-87
2024/01/01 08:32:54;;;;;;;12.70;2.57;;;7.70;99.90;;;;;;5007740;28;20030;-86
2024/01/01 08:35:20;;;;;;;10.20;2.37;;;7.70;99.90;;;;;;5007797;28;20105;-87
2024/01/01 08:37:48;;;;;;;7.10;1.50;;;7.70;99.90;;;;;;5024841;28;20022;-89
2024/01/01 08:40:14;;;;;;;13.60;2.13;;;7.70;99.90;;;;;;5008307;28;20109;-90
2024/01/01 08:42:40;;;;;;;14.07;1.73;;;7.70;99.90;;;;;;5007494;28;20061;-89
2024/01/01 08:45:06;;;;;;;9.57;2.07;;;7.80;99.90;;;;;;5008486;28;20034;-88
2024/01/01 08:47:32;;;;;;;14.53;2.37;;;7.80;99.90;;;;;;5007948;28;20088;-88
2024/01/01 08:49:59;;;;;;;15.57;2.43;;;7.80;99.90;;;;;;5008204;28;20022;-85
2024/01/01 08:52:25;;;;;;;10.83;1.90;;;7.80;99.90;;;;;;5007596;28;20088;-85
2024/01/01 08:54:50;;;;;;;10.90;2.17;;;7.80;99.90;;;;;;5006813;28;20557;-86
2024/01/01 08:57:16;;;;;;;15.40;3.03;;;7.70;99.90;;;;;;5026228;28;20028;-86
2024/01/01 08:59:42;;;;;;;11.60;2.20;;;7.70;99.90;;;;;;5007123;28;20018;-85
2024/01/01 09:02:08;;;;;;;15.10;2.80;;;7.70;99.90;;;;;;5007673;28;20049;-84
2024/01/01 09:04:34;;;;;;;15.90;3.17;;;7.60;99.90;;;;;;5006815;28;20018;-84
2024/01/01 09:07:01;;;;;;;12.67;2.03;;;7.60;99.90;;;;;;5006859;28;20466;-83
2024/01/01 09:09:30;;;;;;;13.17;2.37;;;7.60;99.90;;;;;;5007202;28;20028;-82
2024/01/01 09:11:56;;;;;;;12.03;4.03;;;7.60;99.90;;;;;;5006311;28;20033;-83
2024/01/01 09:14:22;;;;;;;12.63;2.50;;;7.50;99.90;;;;;;5007447;28;20086;-83
2024/01/01 09:16:50;;;;;;;12.47;2.50;;;7.50;99.90;;;;;;5005841;28;20034;-83
2024/01/01 09:19:16;;;;;;;10.77;2.10;;;7.50;99.90;;;;;;5007611;28;20026;-82
2024/01/01 09:21:43;;;;;;;12.33;2.50;;;7.50;99.90;;;;;;5020502;28;20169;-83
2024/01/01 09:24:09;;;;;;;9.00;2.50;;;7.50;99.90;;;;;;4986750;28;20131;-84
2024/01/01 09:26:37;;;;;;;13.73;2.37;;;7.50;99.90;;;;;;4986915;28;20089;-83
2024/01/01 09:29:04;;;;;;;19.23;3.77;;;7.50;99.90;;;;;;4986439;28;20103;-84
2024/01/01 09:31:31;;;;;;;13.27;2.97;;;7.40;99.90;;;;;;4987328;28;20038;-84
2024/01/01 09:34:00;;;;;;;13.23;2.97;;;7.40;99.90;;;;;;4986130;28;20042;-84
2024/01/01 09:36:27;;;;;;;14.23;2.73;;;7.30;99.90;;;;;;5004476;28;20025;-84
2024/01/01 09:38:52;;;;;;;14.83;2.70;;;7.30;99.90;;;;;;4986283;28;20033;-84
2024/01/01 09:41:18;;;;;;;13.77;2.40;;;7.30;99.90;;;;;;4971245;28;20026;-83
2024/01/01 09:43:46;;;;;;;10.47;2.30;;;7.30;99.90;;;;;;4992768;28;20084;-84
2024/01/01 09:46:14;;;;;;;10.77;3.07;;;7.40;99.90;;;;;;4990261;28;20069;-84
2024/01/01 09:48:43;;;;;;;9.23;2.30;;;7.30;99.90;;;;;;5003208;28;20038;-84
2024/01/01 09:51:09;;;;;;;15.57;2.60;;;7.30;99.90;;;;;;5001522;28;20061;-84
2024/01/01 09:53:35;;;;;;;10.13;2.57;;;7.30;99.90;;;;;;5003686;28;20116;-85
2024/01/01 09:56:00;;;;;;;13.03;1.90;;;7.40;99.90;;;;;;5002366;28;20030;-84
2024/01/01 09:58:26;;;;;;;17.43;2.53;;;7.30;99.90;;;;;;5002734;28;20375;-85
2024/01/01 10:00:52;;;;;;;11.53;2.50;;;7.40;99.90;;;;;;4986542;28;20034;-84
2024/01/01 10:03:17;;;;;;;10.53;2.00;;;7.40;99.90;;;;;;5002119;28;20026;-84
2024/01/01 10:05:46;;;;;;;10.63;1.97;;;7.50;99.90;;;;;;5005664;28;20076;-82
2024/01/01 10:08:13;;;;;;;8.77;1.70;;;7.60;99.90;;;;;;5004557;28;20045;-86
2024/01/01 10:10:40;;;;;;;10.90;1.87;;;7.60;99.90;;;;;;5006504;28;20028;-84
2024/01/01 10:13:11;;;;;;;7.60;1.60;;;7.60;99.90;;;;;;5004905;28;20048;-85
2024/01/01 10:15:39;;;;;;;9.73;2.17;;;7.60;99.90;;;;;;5005450;28;20704;-86
2024/01/01 10:18:14;;;;;;;6.40;1.50;;;7.60;99.90;;;;;;5005739;28;20030;-85
2024/01/01 10:20:42;;;;;;;11.03;1.93;;;7.70;99.90;;;;;;5004433;28;20033;-86
2024/01/01 10:23:38;;;;;;;7.50;1.23;;;7.70;99.90;;;;;;5006558;28;20025;-85
2024/01/01 10:26:09;;;;;;;10.13;2.10;;;7.60;99.90;;;;;;4992532;28;20100;-83
2024/01/01 10:28:36;;;;;;;8.17;1.47;;;7.60;99.90;;;;;;5005294;28;20097;-83
2024/01/01 10:31:02;;;;;;;8.50;1.40;;;7.60;99.90;;;;;;5005534;28;20042;-82
2024/01/01 10:33:29;;;;;;;7.33;1.43;;;7.70;99.90;;;;;;5006352;28;20052;-83
2024/01/01 10:35:58;;;;;;;8.70;1.97;;;7.70;99.90;;;;;;5003935;28;20056;-83
2024/01/01 10:38:25;;;;;;;6.80;1.23;;;7.70;99.90;;;;;;5023844;28;20025;-81
2024/01/01 10:40:55;;;;;;;7.23;1.60;;;7.70;99.90;;;;;;5011345;28;20052;-81
2024/01/01 10:43:23;;;;;;;10.67;1.73;;;7.70;99.90;;;;;;5004081;28;20045;-81
2024/01/01 10:45:50;;;;;;;8.80;1.70;;;7.70;99.90;;;;;;5004370;28;20029;-81
2024/01/01 10:48:17;;;;;;;8.20;2.30;;;7.70;99.90;;;;;;5022179;28;20049;-81
2024/01/01 10:51:14;;;;;;;11.13;1.70;;;7.70;99.90;;;;;;5021893;28;20034;-84
2024/01/01 10:54:05;;;;;;;5.57;1.27;;;7.70;99.90;;;;;;4976000;28;20441;-85
2024/01/01 10:56:37;;;;;;;10.50;1.50;;;7.70;99.90;;;;;;5003886;28;20026;-85
2024/01/01 10:59:20;;;;;;;6.77;1.63;;;7.90;99.90;;;;;;5003060;28;20034;-85
2024/01/01 11:01:48;;;;;;;10.23;1.67;;;8.20;99.90;;;;;;5005521;28;20030;-85
2024/01/01 11:04:15;;;;;;;5.97;1.00;;;8.60;99.90;;;;;;5003331;28;20315;-84
2024/01/01 11:06:44;;;;;;;6.10;0.97;;;8.90;99.90;;;;;;5005128;28;20030;-85
2024/01/01 11:09:19;;;;;;;5.32;1.00;;;9.30;99.90;;;;;;4987858;28;20054;-84
2024/01/01 11:11:50;;;;;;;7.63;1.40;;;9.40;99.90;;;;;;5004716;28;20032;-83
2024/01/01 11:14:30;;;;;;;9.57;1.30;;;9.30;99.90;;;;;;5004496;28;20029;-84
2024/01/01 11:17:00;;;;;;;6.63;1.40;;;9.20;99.90;;;;;;5003293;28;20030;-85
2024/01/01 11:19:39;;;;;;;10.50;1.73;;;9.10;99.90;;;;;;5005346;28;20029;-84
2024/01/01 11:22:20;;;;;;;7.90;1.50;;;9.00;99.90;;;;;;5004352;28;20033;-84
2024/01/01 11:24:47;;;;;;;10.63;2.20;;;8.80;99.90;;;;;;5004268;28;20037;-84
2024/01/01 11:27:27;;;;;;;13.13;1.87;;;8.80;99.90;;;;;;5004444;28;20030;-84
2024/01/01 11:29:53;;;;;;;8.57;1.77;;;8.70;99.90;;;;;;5003380;28;20025;-85
2024/01/01 11:32:19;;;;;;;10.50;1.50;;;8.60;99.90;;;;;;5004101;28;20021;-85
2024/01/01 11:35:11;;;;;;;8.43;1.37;;;8.50;99.90;;;;;;5003164;28;20028;-83
2024/01/01 11:37:40;;;;;;;11.60;1.73;;;8.50;99.90;;;;;;5004020;28;20296;-83
2024/01/01 11:40:06;;;;;;;6.30;1.20;;;8.40;99.90;;;;;;5004420;28;20057;-83
2024/01/01 11:42:34;;;;;;;4.33;1.00;;;8.40;99.90;;;;;;5003151;28;20029;-85
2024/01/01 11:45:17;;;;;;;5.53;1.00;;;8.40;99.90;;;;;;5004858;28;20026;-84
2024/01/01 11:47:48;;;;;;;7.47;1.53;;;8.40;99.90;;;;;;5002837;28;20026;-84
2024/01/01 11:50:14;;;;;;;10.63;1.50;;;8.60;99.90;;;;;;5003907;28;20088;-84
2024/01/01 11:52:40;;;;;;;5.77;1.47;;;8.80;99.90;;;;;;5004174;28;20022;-84
2024/01/01 11:55:07;;;;;;;10.20;1.93;;;8.90;99.90;;;;;;5003022;28;20030;-85
2024/01/01 11:57:34;;;;;;;5.83;1.20;;;9.20;99.90;;;;;;5004604;28;20025;-85
2024/01/01 12:00:00;;;;;;;6.20;0.90;;;9.40;99.90;;;;;;5003047;28;20026;-84
2024/01/01 12:02:27;;;;;;;12.13;1.30;;;9.40;99.90;;;;;;5004748;28;20085;-85
2024/01/01 12:04:55;;;;;;;8.10;1.07;;;9.40;99.90;;;;;;5002971;28;20018;-84
2024/01/01 12:07:31;;;;;;;8.87;1.50;;;9.20;99.90;;;;;;5004036;28;20045;-86
2024/01/01 12:10:03;;;;;;;8.03;1.13;;;9.10;99.90;;;;;;5003649;28;20037;-85
2024/01/01 12:12:29;;;;;;;11.37;1.60;;;9.00;99.90;;;;;;5002607;28;20026;-85
2024/01/01 12:15:12;;;;;;;11.67;1.27;;;8.90;99.90;;;;;;5004301;28;20026;-84
2024/01/01 12:17:42;;;;;;;9.23;1.20;;;8.90;99.90;;;;;;5020757;28;20022;-84
2024/01/01 12:20:09;;;;;;;11.20;1.50;;;8.80;99.90;;;;;;5004113;28;20056;-85
2024/01/01 12:22:36;;;;;;;10.03;1.30;;;8.70;99.90;;;;;;5004061;28;20054;-85
2024/01/01 12:25:03;;;;;;;11.33;1.53;;;8.70;99.90;;;;;;5003534;28;20030;-85
2024/01/01 12:27:29;;;;;;;6.50;1.20;;;8.60;99.90;;;;;;5004289;28;20037;-86
2024/01/01 12:29:57;;;;;;;11.23;1.30;;;8.60;99.90;;;;;;5002906;28;20030;-85
2024/01/01 12:32:23;;;;;;;9.17;1.33;;;8.90;99.90;;;;;;5004629;28;20045;-85
2024/01/01 12:34:53;;;;;;;9.15;1.10;;;9.60;99.90;;;;;;5002921;28;20046;-85
2024/01/01 12:37:19;;;;;;;10.15;1.75;;;10.40;99.90;;;;;;5003824;28;20174;-84
2024/01/01 12:39:46;;;;;;;12.82;1.83;;;11.00;99.90;;;;;;5003354;28;20046;-86
2024/01/01 12:42:13;;;;;;;10.20;1.40;;;11.50;99.90;;;;;;5003441;28;20121;-83
2024/01/01 12:44:40;;;;;;;11.63;1.50;;;11.70;99.90;;;;;;4988036;28;20490;-85
2024/01/01 12:47:06;;;;;;;16.88;5.72;;;11.50;99.90;;;;;;5003251;28;20037;-84
2024/01/01 12:49:34;;;;;;;12.40;2.33;;;11.40;99.90;;;;;;5003171;28;20022;-85